Time;durP1;ratioP1;P1;durP2;ratioP2;P2;SDS_P1;SDS_P2;PMS_P1;PMS_P2;Temp;Humidity;BMP_temperature;BMP_pressure;BME280_temperature;BME280_humidity;BME280_pressure;Samples;Min_cycle;Max_cycle;Signal;HPM_P1;HPM_P2
2022/03/27 00:02:23;;;;;;;10.35;5.45;;;;;;;;;;5047495;28;20509;-82
2022/03/27 00:04:50;;;;;;;10.30;5.63;;;;;;;;;;5047074;28;20053;-81
2022/03/27 00:07:16;;;;;;;11.40;5.75;;;;;;;;;;5030185;28;20045;-81
2022/03/27 00:09:42;;;;;;;10.95;5.80;;;;;;;;;;5030076;28;20107;-81
2022/03/27 00:12:08;;;;;;;9.98;5.63;;;;;;;;;;5030307;28;20046;-82
2022/03/27 00:14:35;;;;;;;10.68;6.05;;;;;;;;;;5033671;28;20042;-82
2022/03/27 00:17:01;;;;;;;10.85;5.88;;;;;;;;;;5033783;28;20041;-81
2022/03/27 00:19:27;;;;;;;8.90;5.53;;;;;;;;;;5016721;28;20046;-82
2022/03/27 00:21:53;;;;;;;10.38;5.53;;;;;;;;;;5049844;28;20071;-81
2022/03/27 00:24:19;;;;;;;8.98;5.47;;;;;;;;;;5032948;28;20459;-82
2022/03/27 00:26:45;;;;;;;9.98;5.80;;;;;;;;;;5049036;28;20610;-82
2022/03/27 00:29:15;;;;;;;10.25;6.18;;;;;;;;;;5015780;28;20045;-82
2022/03/27 00:31:41;;;;;;;9.50;5.70;;;;;;;;;;5012914;28;20057;-82
2022/03/27 00:34:07;;;;;;;10.40;6.45;;;;;;;;;;5025651;28;20037;-82
2022/03/27 00:36:33;;;;;;;10.65;6.40;;;;;;;;;;5033049;28;20045;-82
2022/03/27 00:38:59;;;;;;;11.48;6.13;;;;;;;;;;5049403;28;20519;-81
2022/03/27 00:41:26;;;;;;;11.57;6.75;;;;;;;;;;5032488;28;20084;-81
2022/03/27 00:43:52;;;;;;;11.23;5.85;;;;;;;;;;5032838;28;20405;-81
2022/03/27 00:46:21;;;;;;;13.68;6.65;;;;;;;;;;5031416;28;20041;-81
2022/03/27 00:48:47;;;;;;;12.73;6.65;;;;;;;;;;5026748;28;20319;-81
2022/03/27 00:51:14;;;;;;;12.73;7.10;;;;;;;;;;5020230;28;20095;-82
2022/03/27 00:53:40;;;;;;;11.02;6.00;;;;;;;;;;5032032;28;20040;-81
2022/03/27 00:56:06;;;;;;;11.50;6.45;;;;;;;;;;5048826;28;20500;-82
2022/03/27 00:58:32;;;;;;;13.25;6.97;;;;;;;;;;5012043;28;20053;-82
2022/03/27 01:01:15;;;;;;;12.77;6.97;;;;;;;;;;5019149;28;20045;-82
2022/03/27 01:03:41;;;;;;;14.05;7.65;;;;;;;;;;5030568;28;20052;-82
2022/03/27 01:06:17;;;;;;;14.30;7.72;;;;;;;;;;5032058;28;20042;-81
2022/03/27 01:11:28;;;;;;;12.77;6.85;;;;;;;;;;5047067;28;20049;-82
2022/03/27 01:13:56;;;;;;;13.05;6.93;;;;;;;;;;5031957;28;20033;-82
2022/03/27 01:16:49;;;;;;;11.40;6.90;;;;;;;;;;5032536;28;20179;-81
2022/03/27 01:19:16;;;;;;;12.45;6.68;;;;;;;;;;4987370;28;20519;-82
2022/03/27 01:21:42;;;;;;;13.18;7.45;;;;;;;;;;5026580;28;20080;-82
2022/03/27 01:24:09;;;;;;;12.65;7.10;;;;;;;;;;5030325;28;20581;-82
2022/03/27 01:26:36;;;;;;;11.52;6.38;;;;;;;;;;5032371;28;20064;-82
2022/03/27 01:29:02;;;;;;;13.88;7.25;;;;;;;;;;5046836;28;20041;-82
2022/03/27 01:31:29;;;;;;;13.27;7.18;;;;;;;;;;5030168;28;20108;-82
2022/03/27 01:33:55;;;;;;;12.10;6.78;;;;;;;;;;5013930;28;20513;-81
2022/03/27 01:36:26;;;;;;;14.88;6.93;;;;;;;;;;5030625;28;20099;-82
2022/03/27 01:38:53;;;;;;;14.70;6.82;;;;;;;;;;5031347;28;20037;-82
2022/03/27 01:41:19;;;;;;;13.13;7.30;;;;;;;;;;5030601;28;20041;-82
2022/03/27 01:43:46;;;;;;;13.70;7.55;;;;;;;;;;5029358;28;20454;-82
2022/03/27 01:46:12;;;;;;;10.63;6.78;;;;;;;;;;5030286;28;20052;-82
2022/03/27 01:48:38;;;;;;;13.43;7.55;;;;;;;;;;5014118;28;20048;-82
2022/03/27 01:51:05;;;;;;;11.07;6.38;;;;;;;;;;5047499;28;20490;-82
2022/03/27 01:53:32;;;;;;;11.65;7.15;;;;;;;;;;5030410;28;20037;-82
2022/03/27 01:55:58;;;;;;;13.13;6.85;;;;;;;;;;5046975;28;20043;-82
2022/03/27 01:58:24;;;;;;;12.20;6.80;;;;;;;;;;5029302;28;20124;-82
2022/03/27 02:00:51;;;;;;;12.07;6.63;;;;;;;;;;5029999;28;20046;-82
2022/03/27 02:03:17;;;;;;;11.57;7.05;;;;;;;;;;5038187;28;20057;-82
2022/03/27 02:05:44;;;;;;;13.57;7.00;;;;;;;;;;5029849;28;20096;-81
2022/03/27 02:08:11;;;;;;;15.00;7.50;;;;;;;;;;5013982;28;20063;-82
2022/03/27 02:10:39;;;;;;;13.15;6.97;;;;;;;;;;5013489;28;20128;-82
2022/03/27 02:13:11;;;;;;;13.02;7.63;;;;;;;;;;5046135;28;20057;-82
2022/03/27 02:15:38;;;;;;;13.35;7.00;;;;;;;;;;5047184;28;20045;-82
2022/03/27 02:18:04;;;;;;;11.60;6.57;;;;;;;;;;5030458;28;20416;-82
2022/03/27 02:20:30;;;;;;;12.80;6.85;;;;;;;;;;5029711;28;20045;-82
2022/03/27 02:22:56;;;;;;;13.05;7.47;;;;;;;;;;5012824;28;20044;-82
2022/03/27 02:25:23;;;;;;;13.65;8.20;;;;;;;;;;5013429;28;20127;-82
2022/03/27 02:27:49;;;;;;;15.52;7.70;;;;;;;;;;5013565;28;20048;-82
2022/03/27 02:30:15;;;;;;;13.48;7.45;;;;;;;;;;5013101;28;20057;-82
2022/03/27 02:32:42;;;;;;;14.27;6.88;;;;;;;;;;5029646;28;20512;-82
2022/03/27 02:35:08;;;;;;;14.73;7.68;;;;;;;;;;5010220;28;20537;-82
2022/03/27 02:37:34;;;;;;;15.45;7.72;;;;;;;;;;5018492;28;20472;-81
2022/03/27 02:40:00;;;;;;;13.02;7.50;;;;;;;;;;5029773;28;20378;-81
2022/03/27 02:42:26;;;;;;;14.13;7.60;;;;;;;;;;5046252;28;20048;-81
2022/03/27 02:44:53;;;;;;;15.55;7.85;;;;;;;;;;5029060;28;20038;-81
2022/03/27 02:47:19;;;;;;;14.93;7.85;;;;;;;;;;5029747;28;20527;-81
2022/03/27 02:49:45;;;;;;;14.07;7.88;;;;;;;;;;5029220;28;20048;-81
2022/03/27 02:52:11;;;;;;;14.48;7.20;;;;;;;;;;5029346;28;20072;-81
2022/03/27 02:54:37;;;;;;;15.93;7.80;;;;;;;;;;5029224;28;20509;-81
2022/03/27 02:57:04;;;;;;;15.63;8.25;;;;;;;;;;5012291;28;20076;-81
2022/03/27 02:59:30;;;;;;;16.25;7.85;;;;;;;;;;5028806;28;20045;-81
2022/03/27 03:01:56;;;;;;;15.43;7.57;;;;;;;;;;5045381;28;20045;-81
2022/03/27 03:04:23;;;;;;;14.27;8.27;;;;;;;;;;5046048;28;20043;-81
2022/03/27 03:06:49;;;;;;;14.93;7.78;;;;;;;;;;5029525;28;20263;-81
2022/03/27 03:09:16;;;;;;;15.50;8.00;;;;;;;;;;5028981;28;20195;-82
2022/03/27 03:11:43;;;;;;;15.25;7.65;;;;;;;;;;5012860;28;20433;-81
2022/03/27 03:14:09;;;;;;;17.70;8.50;;;;;;;;;;5045428;28;20044;-81
2022/03/27 03:16:38;;;;;;;15.50;8.68;;;;;;;;;;5012047;28;20038;-81
2022/03/27 03:19:05;;;;;;;18.77;9.35;;;;;;;;;;5029095;28;20068;-81
2022/03/27 03:21:31;;;;;;;16.55;8.00;;;;;;;;;;5012545;28;20041;-81
2022/03/27 03:23:57;;;;;;;18.35;9.20;;;;;;;;;;5008796;28;20088;-81
2022/03/27 03:26:24;;;;;;;21.73;10.38;;;;;;;;;;5015265;28;20046;-81
2022/03/27 03:28:51;;;;;;;17.25;8.73;;;;;;;;;;5027827;28;20052;-81
2022/03/27 03:31:17;;;;;;;20.70;8.98;;;;;;;;;;5011183;28;20061;-81
2022/03/27 03:33:44;;;;;;;19.67;9.13;;;;;;;;;;5028020;28;20080;-81
2022/03/27 03:36:10;;;;;;;18.15;8.52;;;;;;;;;;5027283;28;20045;-81
2022/03/27 03:38:37;;;;;;;34.13;9.82;;;;;;;;;;5027611;28;20045;-81
2022/03/27 03:41:03;;;;;;;22.15;10.35;;;;;;;;;;5028604;28;20476;-81
2022/03/27 03:43:30;;;;;;;27.42;10.70;;;;;;;;;;5027409;28;20052;-81
2022/03/27 03:45:56;;;;;;;22.15;9.77;;;;;;;;;;5027443;28;20053;-82
2022/03/27 03:48:22;;;;;;;23.42;11.20;;;;;;;;;;5029910;28;20123;-81
2022/03/27 03:50:48;;;;;;;24.70;11.07;;;;;;;;;;5015349;28;20226;-82
2022/03/27 03:53:15;;;;;;;30.27;10.98;;;;;;;;;;5015838;28;20038;-81
2022/03/27 03:55:41;;;;;;;27.83;12.35;;;;;;;;;;5047532;28;20087;-81
2022/03/27 03:58:08;;;;;;;27.10;12.70;;;;;;;;;;5030921;28;20044;-81
2022/03/27 04:00:34;;;;;;;26.85;10.65;;;;;;;;;;5032373;28;20401;-81
2022/03/27 04:03:00;;;;;;;22.33;11.27;;;;;;;;;;5030984;28;20065;-81
2022/03/27 04:05:26;;;;;;;25.40;12.48;;;;;;;;;;5011698;28;20136;-81
2022/03/27 04:07:52;;;;;;;24.67;11.73;;;;;;;;;;5019433;28;20041;-81
2022/03/27 04:10:19;;;;;;;23.50;11.20;;;;;;;;;;5031510;28;20489;-81
2022/03/27 04:12:45;;;;;;;29.30;11.88;;;;;;;;;;5015139;28;20037;-81
2022/03/27 04:15:11;;;;;;;32.63;14.02;;;;;;;;;;5031502;28;20124;-81
2022/03/27 04:17:44;;;;;;;30.00;13.88;;;;;;;;;;5048477;28;20041;-81
2022/03/27 04:20:11;;;;;;;27.83;12.52;;;;;;;;;;5032697;28;20045;-81
2022/03/27 04:22:37;;;;;;;31.17;13.63;;;;;;;;;;5048512;28;20049;-81
2022/03/27 04:25:10;;;;;;;29.58;13.73;;;;;;;;;;5048994;28;20041;-81
2022/03/27 04:27:37;;;;;;;42.72;14.27;;;;;;;;;;5027624;28;20076;-81
2022/03/27 04:30:05;;;;;;;28.67;13.25;;;;;;;;;;5023453;28;20088;-81
2022/03/27 04:32:31;;;;;;;30.60;12.23;;;;;;;;;;5015076;28;20041;-81
2022/03/27 04:34:58;;;;;;;34.65;13.70;;;;;;;;;;5014608;28;20045;-81
2022/03/27 04:37:25;;;;;;;35.33;12.68;;;;;;;;;;5047428;28;20048;-81
2022/03/27 04:39:51;;;;;;;38.10;13.13;;;;;;;;;;5030715;28;20505;-81
2022/03/27 04:42:18;;;;;;;40.97;12.27;;;;;;;;;;5030445;28;20103;-81
2022/03/27 04:44:44;;;;;;;31.10;12.40;;;;;;;;;;5031083;28;20329;-81
2022/03/27 04:47:10;;;;;;;52.33;12.75;;;;;;;;;;5029818;28;20049;-81
2022/03/27 04:49:37;;;;;;;41.67;11.88;;;;;;;;;;5030021;28;20053;-81
2022/03/27 04:52:04;;;;;;;50.78;12.98;;;;;;;;;;5014214;28;20409;-81
2022/03/27 04:54:32;;;;;;;56.10;13.70;;;;;;;;;;5014183;28;20038;-81
2022/03/27 04:56:58;;;;;;;34.55;11.82;;;;;;;;;;5014520;28;20175;-81
2022/03/27 04:59:24;;;;;;;44.53;13.82;;;;;;;;;;5030575;28;20037;-81
2022/03/27 05:01:50;;;;;;;44.05;13.57;;;;;;;;;;5031765;28;20041;-81
2022/03/27 05:04:16;;;;;;;54.33;14.77;;;;;;;;;;5015021;28;20300;-81
2022/03/27 05:06:43;;;;;;;43.38;15.15;;;;;;;;;;5031562;28;20045;-82
2022/03/27 05:09:09;;;;;;;37.53;12.98;;;;;;;;;;5031723;28;20516;-82
2022/03/27 05:11:36;;;;;;;37.78;13.40;;;;;;;;;;5016510;28;20190;-82
2022/03/27 05:14:02;;;;;;;36.75;12.48;;;;;;;;;;5029710;28;20033;-81
2022/03/27 05:16:29;;;;;;;37.80;12.85;;;;;;;;;;5014166;28;20037;-82
2022/03/27 05:18:55;;;;;;;34.50;12.05;;;;;;;;;;5030766;28;20523;-81
2022/03/27 05:21:23;;;;;;;32.10;12.15;;;;;;;;;;5032176;28;20128;-81
2022/03/27 05:23:49;;;;;;;35.88;12.88;;;;;;;;;;5031734;28;20045;-82
2022/03/27 05:26:15;;;;;;;39.33;12.55;;;;;;;;;;5030526;28;20042;-82
2022/03/27 05:28:41;;;;;;;30.92;11.85;;;;;;;;;;5030782;28;20033;-82
2022/03/27 05:31:09;;;;;;;27.45;11.75;;;;;;;;;;5010497;28;20058;-82
2022/03/27 05:33:44;;;;;;;37.72;13.45;;;;;;;;;;5027938;28;20049;-82
2022/03/27 05:36:10;;;;;;;41.70;13.60;;;;;;;;;;5047191;28;20041;-81
2022/03/27 05:38:38;;;;;;;34.25;14.10;;;;;;;;;;5047809;28;20033;-82
2022/03/27 05:41:04;;;;;;;39.83;12.60;;;;;;;;;;5046744;28;20045;-82
2022/03/27 05:43:31;;;;;;;84.85;14.52;;;;;;;;;;5030204;28;20492;-82
2022/03/27 05:45:57;;;;;;;68.50;14.88;;;;;;;;;;5047178;28;20310;-82
2022/03/27 05:48:23;;;;;;;57.03;14.13;;;;;;;;;;5029821;28;20623;-82
2022/03/27 05:50:49;;;;;;;65.95;14.70;;;;;;;;;;5030188;28;20532;-81
2022/03/27 05:53:16;;;;;;;61.70;14.63;;;;;;;;;;5045954;28;20124;-81
2022/03/27 05:55:42;;;;;;;68.05;14.65;;;;;;;;;;5014117;28;20041;-81
2022/03/27 05:58:09;;;;;;;82.25;16.45;;;;;;;;;;5047322;28;20037;-81
2022/03/27 06:00:35;;;;;;;37.67;13.18;;;;;;;;;;5030722;28;20037;-81
2022/03/27 06:03:01;;;;;;;107.50;16.20;;;;;;;;;;5041394;28;20052;-80
2022/03/27 06:05:28;;;;;;;31.23;12.00;;;;;;;;;;5013293;28;20051;-81
2022/03/27 06:07:55;;;;;;;101.85;15.95;;;;;;;;;;5030598;28;20124;-81
2022/03/27 06:10:23;;;;;;;26.10;10.90;;;;;;;;;;5016991;28;20132;-81
2022/03/27 06:12:50;;;;;;;60.20;13.77;;;;;;;;;;5013020;28;20091;-81
2022/03/27 06:15:16;;;;;;;41.03;12.63;;;;;;;;;;5013689;28;20302;-81
2022/03/27 06:17:44;;;;;;;47.65;12.93;;;;;;;;;;5040354;28;20044;-81
2022/03/27 06:20:12;;;;;;;29.30;11.65;;;;;;;;;;5029407;28;20076;-82
2022/03/27 06:22:39;;;;;;;50.28;14.57;;;;;;;;;;5040096;28;20037;-82
2022/03/27 06:25:06;;;;;;;37.58;11.25;;;;;;;;;;5028793;28;20099;-81
2022/03/27 06:27:32;;;;;;;57.88;13.38;;;;;;;;;;5028651;28;20042;-80
2022/03/27 06:29:59;;;;;;;72.28;15.52;;;;;;;;;;5026709;28;20276;-81
2022/03/27 06:32:28;;;;;;;31.92;12.82;;;;;;;;;;5030728;28;20050;-81
2022/03/27 06:34:58;;;;;;;30.48;12.20;;;;;;;;;;5021550;28;20029;-81
2022/03/27 06:37:25;;;;;;;31.20;11.98;;;;;;;;;;5057185;28;20041;-81
2022/03/27 06:39:51;;;;;;;27.45;12.02;;;;;;;;;;5051636;28;20037;-81
2022/03/27 06:42:18;;;;;;;32.53;12.85;;;;;;;;;;5036149;28;20095;-81
2022/03/27 06:44:44;;;;;;;28.58;11.82;;;;;;;;;;5039033;28;20170;-81
2022/03/27 06:47:10;;;;;;;30.27;11.18;;;;;;;;;;5033997;28;20045;-81
2022/03/27 06:49:36;;;;;;;33.40;11.70;;;;;;;;;;5022960;28;20059;-81
2022/03/27 06:52:03;;;;;;;27.00;11.60;;;;;;;;;;5048489;28;20038;-81
2022/03/27 06:54:29;;;;;;;30.33;11.18;;;;;;;;;;5027026;28;20095;-81
2022/03/27 06:56:56;;;;;;;28.95;10.75;;;;;;;;;;5025924;28;20063;-81
2022/03/27 06:59:22;;;;;;;28.85;10.60;;;;;;;;;;5028367;28;20037;-81
2022/03/27 07:04:34;;;;;;;37.30;11.23;;;;;;;;;;5013755;28;20418;-82
2022/03/27 07:07:00;;;;;;;29.20;9.60;;;;;;;;;;5011760;28;20497;-81
2022/03/27 07:09:26;;;;;;;33.05;10.48;;;;;;;;;;5045600;28;20134;-81
2022/03/27 07:11:52;;;;;;;34.03;10.95;;;;;;;;;;5045001;28;20497;-81
2022/03/27 07:14:19;;;;;;;34.90;10.02;;;;;;;;;;5028593;28;20191;-81
2022/03/27 07:16:45;;;;;;;42.83;9.90;;;;;;;;;;5008024;28;20038;-81
2022/03/27 07:19:14;;;;;;;38.30;10.88;;;;;;;;;;5009276;28;20041;-82
2022/03/27 07:21:42;;;;;;;31.15;10.32;;;;;;;;;;5026061;28;20041;-82
2022/03/27 07:24:09;;;;;;;38.63;10.48;;;;;;;;;;5045119;28;20052;-82
2022/03/27 07:26:36;;;;;;;39.60;10.63;;;;;;;;;;5028081;28;20144;-81
2022/03/27 07:29:04;;;;;;;34.72;9.88;;;;;;;;;;5027412;28;20230;-82
2022/03/27 07:31:31;;;;;;;35.60;9.07;;;;;;;;;;5011252;28;20062;-83
2022/03/27 07:33:58;;;;;;;33.88;8.90;;;;;;;;;;5027898;28;20080;-83
2022/03/27 07:36:24;;;;;;;39.42;9.60;;;;;;;;;;5028145;28;20034;-82
2022/03/27 07:38:50;;;;;;;31.15;10.00;;;;;;;;;;5029123;28;20048;-82
2022/03/27 07:41:16;;;;;;;35.22;9.40;;;;;;;;;;5028222;28;20037;-82
2022/03/27 07:43:43;;;;;;;35.17;9.57;;;;;;;;;;5011747;28;20044;-83
2022/03/27 07:46:09;;;;;;;33.78;9.80;;;;;;;;;;5027903;28;20038;-81
2022/03/27 07:48:35;;;;;;;34.65;10.52;;;;;;;;;;5028730;28;20038;-81
2022/03/27 07:51:01;;;;;;;37.30;10.40;;;;;;;;;;5028449;28;20042;-83
2022/03/27 07:53:27;;;;;;;34.72;10.23;;;;;;;;;;5027758;28;20034;-83
2022/03/27 07:55:53;;;;;;;31.90;10.13;;;;;;;;;;5028405;28;20516;-81
2022/03/27 07:58:20;;;;;;;41.63;11.10;;;;;;;;;;5028052;28;20048;-82
2022/03/27 08:00:46;;;;;;;31.13;9.57;;;;;;;;;;5012571;28;20408;-82
2022/03/27 08:03:12;;;;;;;43.53;11.48;;;;;;;;;;5027095;28;20574;-83
2022/03/27 08:05:38;;;;;;;32.75;9.50;;;;;;;;;;5011324;28;20046;-82
2022/03/27 08:08:04;;;;;;;29.80;9.73;;;;;;;;;;5044487;28;20060;-81
2022/03/27 08:10:31;;;;;;;32.15;9.15;;;;;;;;;;5007782;28;20505;-81
2022/03/27 08:12:57;;;;;;;36.28;11.25;;;;;;;;;;5024796;28;20389;-82
2022/03/27 08:15:23;;;;;;;33.50;10.48;;;;;;;;;;5027842;28;20045;-81
2022/03/27 08:17:54;;;;;;;32.63;9.50;;;;;;;;;;5043971;28;20055;-82
2022/03/27 08:20:21;;;;;;;33.60;9.25;;;;;;;;;;5011040;28;20046;-82
2022/03/27 08:22:48;;;;;;;28.60;9.60;;;;;;;;;;5027340;28;20045;-83
2022/03/27 08:26:55;;;;;;;31.58;10.18;;;;;;;;;;5010950;28;20046;-82
2022/03/27 08:28:00;;;;;;;29.73;9.88;;;;;;;;;;5042544;28;20045;-81
2022/03/27 08:30:26;;;;;;;30.90;9.73;;;;;;;;;;5026702;28;20060;-81
2022/03/27 08:32:52;;;;;;;35.08;9.95;;;;;;;;;;5010948;28;20037;-82
2022/03/27 08:35:18;;;;;;;32.25;9.20;;;;;;;;;;5047283;28;20041;-82
2022/03/27 08:37:44;;;;;;;24.35;8.85;;;;;;;;;;5014115;28;20037;-81
2022/03/27 08:40:11;;;;;;;32.40;9.10;;;;;;;;;;5014221;28;20041;-84
2022/03/27 08:42:38;;;;;;;31.75;8.68;;;;;;;;;;5031655;28;20038;-83
2022/03/27 08:45:04;;;;;;;27.80;8.68;;;;;;;;;;5047562;28;20049;-83
2022/03/27 08:47:31;;;;;;;28.85;7.80;;;;;;;;;;5031804;28;20056;-84
2022/03/27 08:50:13;;;;;;;32.10;9.85;;;;;;;;;;5014459;28;20045;-81
2022/03/27 08:52:52;;;;;;;32.47;9.18;;;;;;;;;;5012053;28;20046;-85
2022/03/27 08:55:20;;;;;;;32.42;9.90;;;;;;;;;;5022690;28;20531;-85
2022/03/27 08:57:52;;;;;;;31.17;10.38;;;;;;;;;;5031097;28;20464;-83
2022/03/27 09:00:22;;;;;;;31.75;9.88;;;;;;;;;;5047924;28;20124;-83
2022/03/27 09:02:49;;;;;;;29.73;9.50;;;;;;;;;;5030991;28;20056;-84
2022/03/27 09:05:16;;;;;;;32.30;10.55;;;;;;;;;;5046111;28;20122;-83
2022/03/27 09:07:42;;;;;;;30.67;10.30;;;;;;;;;;5030634;28;20577;-83
2022/03/27 09:10:09;;;;;;;32.25;9.75;;;;;;;;;;5030180;28;20041;-84
2022/03/27 09:12:35;;;;;;;26.60;9.57;;;;;;;;;;5029747;28;20479;-82
2022/03/27 09:15:11;;;;;;;33.50;9.73;;;;;;;;;;5030699;28;20033;-84
2022/03/27 09:17:56;;;;;;;30.73;10.23;;;;;;;;;;5031433;28;20288;-83
2022/03/27 09:20:41;;;;;;;29.73;9.70;;;;;;;;;;5034158;28;20428;-82
2022/03/27 09:23:14;;;;;;;27.35;9.00;;;;;;;;;;5030394;28;20053;-84
2022/03/27 09:25:48;;;;;;;28.00;9.98;;;;;;;;;;5030917;28;20057;-83
2022/03/27 09:28:34;;;;;;;27.83;9.07;;;;;;;;;;5030541;28;20128;-84
2022/03/27 09:31:22;;;;;;;30.50;10.82;;;;;;;;;;5025863;28;20050;-83
2022/03/27 09:33:50;;;;;;;33.22;9.32;;;;;;;;;;5030006;28;20054;-82
2022/03/27 09:36:16;;;;;;;28.23;9.95;;;;;;;;;;5030289;28;20034;-84
2022/03/27 09:38:56;;;;;;;29.38;9.07;;;;;;;;;;5030357;28;20486;-86
2022/03/27 09:41:31;;;;;;;31.63;9.60;;;;;;;;;;5029679;28;20281;-83
2022/03/27 09:44:01;;;;;;;27.83;8.00;;;;;;;;;;5030298;28;20493;-83
2022/03/27 09:46:28;;;;;;;22.52;7.70;;;;;;;;;;5029573;28;20535;-84
2022/03/27 09:48:57;;;;;;;27.38;8.90;;;;;;;;;;5029470;28;20269;-84
2022/03/27 09:51:23;;;;;;;22.00;7.75;;;;;;;;;;5031133;28;20038;-86
2022/03/27 09:54:00;;;;;;;25.15;8.30;;;;;;;;;;5046191;28;20496;-86
2022/03/27 09:56:30;;;;;;;29.80;9.38;;;;;;;;;;5029932;28;20037;-84
2022/03/27 09:58:57;;;;;;;22.23;8.30;;;;;;;;;;5013740;28;20043;-85
2022/03/27 10:01:24;;;;;;;23.48;7.15;;;;;;;;;;5029201;28;20524;-85
2022/03/27 10:03:57;;;;;;;25.98;8.32;;;;;;;;;;5030566;28;20500;-84
2022/03/27 10:06:35;;;;;;;22.30;7.97;;;;;;;;;;5047176;28;20052;-86
2022/03/27 10:09:03;;;;;;;25.75;8.27;;;;;;;;;;5013532;28;20584;-84
2022/03/27 10:11:29;;;;;;;23.83;7.80;;;;;;;;;;5029562;28;20128;-87
2022/03/27 10:13:56;;;;;;;24.08;7.78;;;;;;;;;;5030376;28;20515;-86
2022/03/27 10:16:27;;;;;;;25.45;7.60;;;;;;;;;;5014301;28;20107;-84
2022/03/27 10:18:55;;;;;;;21.73;7.45;;;;;;;;;;5014774;28;20044;-85
2022/03/27 10:21:24;;;;;;;22.05;8.38;;;;;;;;;;5029340;28;20045;-83
2022/03/27 10:23:54;;;;;;;23.42;7.28;;;;;;;;;;5030088;28;20091;-86
2022/03/27 10:26:20;;;;;;;23.23;7.45;;;;;;;;;;5031061;28;20124;-90
2022/03/27 10:28:49;;;;;;;26.35;7.45;;;;;;;;;;5048475;28;20040;-85
2022/03/27 10:31:17;;;;;;;23.15;7.40;;;;;;;;;;5046347;28;20416;-86
2022/03/27 10:33:44;;;;;;;19.83;7.43;;;;;;;;;;5048046;28;20049;-89
2022/03/27 10:36:16;;;;;;;21.52;7.30;;;;;;;;;;5030325;28;20378;-86
2022/03/27 10:38:48;;;;;;;23.60;8.05;;;;;;;;;;5047387;28;20446;-88
2022/03/27 10:41:20;;;;;;;25.63;7.35;;;;;;;;;;5014372;28;20044;-85
2022/03/27 10:43:51;;;;;;;22.15;8.05;;;;;;;;;;5028714;28;20444;-84
2022/03/27 10:46:18;;;;;;;22.63;7.80;;;;;;;;;;5029384;28;20045;-88
2022/03/27 10:48:45;;;;;;;20.33;7.25;;;;;;;;;;5015172;28;20033;-87
2022/03/27 10:51:31;;;;;;;23.15;7.28;;;;;;;;;;5031073;28;20033;-88
2022/03/27 10:54:02;;;;;;;24.42;7.65;;;;;;;;;;5029799;28;20456;-86
2022/03/27 10:56:36;;;;;;;22.83;7.63;;;;;;;;;;5027991;28;20052;-86
2022/03/27 10:59:09;;;;;;;23.45;7.25;;;;;;;;;;5013561;28;20124;-89
2022/03/27 11:01:43;;;;;;;26.63;8.07;;;;;;;;;;5048108;28;20041;-89
2022/03/27 11:04:15;;;;;;;18.17;6.90;;;;;;;;;;5046499;28;20041;-86
2022/03/27 11:06:43;;;;;;;17.55;6.43;;;;;;;;;;5030713;28;20631;-86
2022/03/27 11:09:30;;;;;;;19.10;7.03;;;;;;;;;;5030588;28;20077;-88
2022/03/27 11:11:57;;;;;;;19.15;6.80;;;;;;;;;;5030266;28;20125;-88
2022/03/27 11:14:25;;;;;;;19.30;6.25;;;;;;;;;;5031714;28;20493;-87
2022/03/27 11:17:06;;;;;;;18.20;6.30;;;;;;;;;;5030472;28;20038;-86
2022/03/27 11:19:40;;;;;;;19.67;6.60;;;;;;;;;;5030551;28;20045;-87
2022/03/27 11:22:06;;;;;;;17.55;5.85;;;;;;;;;;5014374;28;20489;-89
2022/03/27 11:24:32;;;;;;;24.98;7.18;;;;;;;;;;5030671;28;20371;-88
2022/03/27 11:26:59;;;;;;;18.63;6.47;;;;;;;;;;5014600;28;20497;-89
2022/03/27 11:29:25;;;;;;;17.05;5.93;;;;;;;;;;5047991;28;20103;-87
2022/03/27 11:32:10;;;;;;;20.27;5.88;;;;;;;;;;5014631;28;20054;-88
2022/03/27 11:34:37;;;;;;;18.23;6.50;;;;;;;;;;5012629;28;20037;-87
2022/03/27 11:37:26;;;;;;;16.08;6.28;;;;;;;;;;5028885;28;20041;-85
2022/03/27 11:39:53;;;;;;;17.95;5.20;;;;;;;;;;5014875;28;20045;-88
2022/03/27 11:42:31;;;;;;;19.25;5.00;;;;;;;;;;5030234;28;20052;-88
2022/03/27 11:45:10;;;;;;;20.65;6.20;;;;;;;;;;5029777;28;20115;-88
2022/03/27 11:47:37;;;;;;;16.38;5.57;;;;;;;;;;5014150;28;20104;-90
2022/03/27 11:50:03;;;;;;;20.42;5.15;;;;;;;;;;5013469;28;20075;-88
2022/03/27 11:52:29;;;;;;;19.08;5.25;;;;;;;;;;5013472;28;20041;-87
2022/03/27 11:55:06;;;;;;;18.42;5.60;;;;;;;;;;5013720;28;20052;-88
2022/03/27 11:57:56;;;;;;;18.85;5.85;;;;;;;;;;5030695;28;20068;-89
2022/03/27 12:00:39;;;;;;;14.85;4.85;;;;;;;;;;5008456;28;20041;-87
2022/03/27 12:03:13;;;;;;;15.88;4.63;;;;;;;;;;5029800;28;20103;-88
2022/03/27 12:05:39;;;;;;;15.20;4.40;;;;;;;;;;5030408;28;20045;-86
2022/03/27 12:08:07;;;;;;;15.60;4.93;;;;;;;;;;5015143;28;20045;-86
2022/03/27 12:10:43;;;;;;;15.45;4.20;;;;;;;;;;5035087;28;20063;-87
2022/03/27 12:13:11;;;;;;;18.25;6.15;;;;;;;;;;5034457;28;20436;-87
2022/03/27 12:15:37;;;;;;;14.70;4.18;;;;;;;;;;5017665;28;20124;-89
2022/03/27 12:18:04;;;;;;;12.82;4.07;;;;;;;;;;5049477;28;20481;-87
2022/03/27 12:20:31;;;;;;;15.18;4.63;;;;;;;;;;5033635;28;20045;-87
2022/03/27 12:22:57;;;;;;;13.60;3.40;;;;;;;;;;5032960;28;20045;-88
2022/03/27 12:25:25;;;;;;;13.35;3.28;;;;;;;;;;5033900;28;20052;-84
2022/03/27 12:30:45;;;;;;;11.15;3.60;;;;;;;;;;5033839;28;20108;-88
2022/03/27 12:33:11;;;;;;;12.88;3.20;;;;;;;;;;5051314;28;20037;-90
2022/03/27 12:35:37;;;;;;;12.45;3.65;;;;;;;;;;5051736;28;20400;-90
2022/03/27 12:38:04;;;;;;;11.93;3.22;;;;;;;;;;5051736;28;20038;-90
2022/03/27 12:40:41;;;;;;;10.23;3.38;;;;;;;;;;5017847;28;20043;-89
2022/03/27 12:43:14;;;;;;;13.38;3.13;;;;;;;;;;5052778;28;20136;-89
2022/03/27 12:45:41;;;;;;;10.52;2.97;;;;;;;;;;5050732;28;20076;-91
2022/03/27 12:48:16;;;;;;;10.77;3.08;;;;;;;;;;5017830;28;20560;-89
2022/03/27 12:50:50;;;;;;;11.38;3.00;;;;;;;;;;5032757;28;20175;-88
2022/03/27 12:53:20;;;;;;;16.58;3.63;;;;;;;;;;5033770;28;20048;-88
2022/03/27 12:55:46;;;;;;;10.10;3.53;;;;;;;;;;5032794;28;20386;-88
2022/03/27 12:58:14;;;;;;;9.00;2.50;;;;;;;;;;5016950;28;20379;-86
2022/03/27 13:00:41;;;;;;;10.50;2.50;;;;;;;;;;5033721;28;20086;-87
2022/03/27 13:03:11;;;;;;;9.13;2.55;;;;;;;;;;5032302;28;20123;-87
2022/03/27 13:05:38;;;;;;;9.95;2.60;;;;;;;;;;5033550;28;20080;-87
2022/03/27 13:08:04;;;;;;;10.13;3.13;;;;;;;;;;5015845;28;20041;-87
2022/03/27 13:10:30;;;;;;;10.18;3.30;;;;;;;;;;5032454;28;20046;-89
2022/03/27 13:13:07;;;;;;;7.65;2.22;;;;;;;;;;5033053;28;20312;-90
2022/03/27 13:15:38;;;;;;;8.60;2.35;;;;;;;;;;5033057;28;20037;-89
2022/03/27 13:18:05;;;;;;;9.75;2.60;;;;;;;;;;5016032;28;20043;-88
2022/03/27 13:20:31;;;;;;;8.55;2.53;;;;;;;;;;5048126;28;20043;-88
2022/03/27 13:22:57;;;;;;;11.45;2.97;;;;;;;;;;5050215;28;20045;-88
2022/03/27 13:25:24;;;;;;;9.32;2.83;;;;;;;;;;5049921;28;20498;-86
2022/03/27 13:27:50;;;;;;;9.40;2.20;;;;;;;;;;5032708;28;20037;-86
2022/03/27 13:30:17;;;;;;;9.93;2.40;;;;;;;;;;5017364;28;20058;-88
2022/03/27 13:32:43;;;;;;;12.15;2.60;;;;;;;;;;5033309;28;20045;-89
2022/03/27 13:35:09;;;;;;;12.48;2.97;;;;;;;;;;5016173;28;20037;-88
2022/03/27 13:37:35;;;;;;;11.43;2.47;;;;;;;;;;5012205;28;20045;-87
2022/03/27 13:40:01;;;;;;;9.38;2.53;;;;;;;;;;5013530;28;20125;-87
2022/03/27 13:45:13;;;;;;;9.38;2.33;;;;;;;;;;5032471;28;20077;-89
2022/03/27 13:47:39;;;;;;;10.77;2.30;;;;;;;;;;5016318;28;20056;-87
2022/03/27 13:50:06;;;;;;;11.02;2.88;;;;;;;;;;5032460;28;20412;-86
2022/03/27 13:52:32;;;;;;;9.77;2.72;;;;;;;;;;5016110;28;20046;-88
2022/03/27 13:54:58;;;;;;;9.40;2.45;;;;;;;;;;5032805;28;20156;-85
2022/03/27 13:57:25;;;;;;;10.35;2.70;;;;;;;;;;5031264;28;20600;-88
2022/03/27 13:59:51;;;;;;;13.00;2.95;;;;;;;;;;5028840;28;20440;-90
2022/03/27 14:02:17;;;;;;;9.20;2.17;;;;;;;;;;5032759;28;20033;-88
2022/03/27 14:04:44;;;;;;;12.35;2.40;;;;;;;;;;5051420;28;20041;-89
2022/03/27 14:07:10;;;;;;;12.65;3.53;;;;;;;;;;5051482;28;20045;-89
2022/03/27 14:09:36;;;;;;;10.43;2.83;;;;;;;;;;5049601;28;20099;-89
2022/03/27 14:12:02;;;;;;;10.32;2.72;;;;;;;;;;5016543;28;20110;-90
2022/03/27 14:14:28;;;;;;;11.40;3.00;;;;;;;;;;5050193;28;20405;-89
2022/03/27 14:16:54;;;;;;;14.40;3.40;;;;;;;;;;5016784;28;20065;-91
2022/03/27 14:19:21;;;;;;;12.05;3.10;;;;;;;;;;5032900;28;20041;-88
2022/03/27 14:22:01;;;;;;;9.80;2.92;;;;;;;;;;5017107;28;20040;-88
2022/03/27 14:24:28;;;;;;;10.02;3.22;;;;;;;;;;5036774;28;20045;-89
2022/03/27 14:26:54;;;;;;;8.55;2.90;;;;;;;;;;5033524;28;20041;-84
2022/03/27 14:29:21;;;;;;;11.55;3.60;;;;;;;;;;5016231;28;20044;-88
2022/03/27 14:31:51;;;;;;;16.30;3.78;;;;;;;;;;5030115;28;20405;-88
2022/03/27 14:34:17;;;;;;;10.73;3.67;;;;;;;;;;5031680;28;20104;-88
2022/03/27 14:36:44;;;;;;;13.60;4.15;;;;;;;;;;5031563;28;20044;-87
2022/03/27 14:39:11;;;;;;;11.57;3.75;;;;;;;;;;5031538;28;20564;-88
2022/03/27 14:41:37;;;;;;;13.93;4.32;;;;;;;;;;5018631;28;20049;-89
2022/03/27 14:44:03;;;;;;;14.80;4.28;;;;;;;;;;5027966;28;20420;-88